createdAt,value
2018-03-16T00:01:29.178Z,16.37
2018-03-16T00:03:57.451Z,18.60
2018-03-16T00:06:27.075Z,17.27
2018-03-16T00:08:55.242Z,16.63
2018-03-16T00:11:24.275Z,16.50
2018-03-16T00:13:52.598Z,15.30
2018-03-16T00:16:20.868Z,16.53
2018-03-16T00:18:49.903Z,18.10
2018-03-16T00:21:18.593Z,16.47
2018-03-16T00:23:47.626Z,17.53
2018-03-16T00:26:15.907Z,18.07
2018-03-16T00:28:44.978Z,18.13
2018-03-16T00:31:13.242Z,17.27
2018-03-16T00:33:41.510Z,17.00
2018-03-16T00:36:10.583Z,19.10
2018-03-16T00:38:39.618Z,17.80
2018-03-16T00:41:07.891Z,16.60
2018-03-16T00:43:36.187Z,18.47
2018-03-16T00:46:05.970Z,18.23
2018-03-16T00:48:34.239Z,19.10
2018-03-16T00:51:02.568Z,19.23
2018-03-16T00:53:30.845Z,18.50
2018-03-16T00:55:59.119Z,18.90
2018-03-16T00:58:28.559Z,19.53
2018-03-16T01:00:57.594Z,17.40
2018-03-16T01:03:26.630Z,17.40
2018-03-16T01:05:54.927Z,19.23
2018-03-16T01:08:23.214Z,19.20
2018-03-16T01:10:51.482Z,17.27
2018-03-16T01:13:19.774Z,17.80
2018-03-16T01:15:48.083Z,19.50
2018-03-16T01:18:16.354Z,19.83
2018-03-16T01:20:47.514Z,18.40
2018-03-16T01:23:15.790Z,17.57
2018-03-16T01:25:44.061Z,19.20
2018-03-16T01:28:12.764Z,19.13
2018-03-16T01:30:42.538Z,19.43
2018-03-16T01:33:10.815Z,19.10
2018-03-16T01:35:39.983Z,18.97
2018-03-16T01:38:08.255Z,17.30
2018-03-16T01:40:37.289Z,18.13
2018-03-16T01:43:05.918Z,17.63
2018-03-16T01:45:34.955Z,16.90
2018-03-16T01:48:03.218Z,19.40
2018-03-16T01:50:31.518Z,17.90
2018-03-16T01:53:11.502Z,18.30
2018-03-16T01:55:39.806Z,17.10
2018-03-16T01:58:08.082Z,19.50
2018-03-16T02:00:37.114Z,18.23
2018-03-16T02:03:05.442Z,16.97
2018-03-16T02:05:33.709Z,17.57
2018-03-16T02:08:02.746Z,17.73
2018-03-16T02:10:31.666Z,19.40
2018-03-16T02:13:00.783Z,17.87
2018-03-16T02:15:30.087Z,19.47
2018-03-16T02:17:59.158Z,16.97
2018-03-16T02:20:28.189Z,16.73
2018-03-16T02:22:59.134Z,18.00
2018-03-16T02:25:27.402Z,17.17
2018-03-16T02:27:56.462Z,17.80
2018-03-16T02:30:24.759Z,17.87
2018-03-16T02:32:53.030Z,18.53
2018-03-16T02:35:22.669Z,19.33
2018-03-16T02:37:51.814Z,19.57
2018-03-16T02:40:20.087Z,18.93
2018-03-16T02:42:49.116Z,21.37
2018-03-16T02:45:17.415Z,21.27
2018-03-16T02:47:45.682Z,18.57
2018-03-16T02:50:13.948Z,21.23
2018-03-16T02:52:42.646Z,21.47
2018-03-16T02:55:11.684Z,20.10
2018-03-16T02:57:39.950Z,20.23
2018-03-16T03:00:08.247Z,20.43
2018-03-16T03:02:37.307Z,21.13
2018-03-16T03:05:06.711Z,21.33
2018-03-16T03:07:35.318Z,22.20
2018-03-16T03:10:03.574Z,23.10
2018-03-16T03:12:32.252Z,22.47
2018-03-16T03:15:00.549Z,23.20
2018-03-16T03:17:28.809Z,22.73
2018-03-16T03:19:57.843Z,23.10
2018-03-16T03:22:26.922Z,23.73
2018-03-16T03:24:55.187Z,23.70
2018-03-16T03:27:23.447Z,23.77
2018-03-16T03:29:52.514Z,23.43
2018-03-16T03:32:21.915Z,24.17
2018-03-16T03:34:50.187Z,23.47
2018-03-16T03:37:18.494Z,24.53
2018-03-16T03:39:46.751Z,23.23
2018-03-16T03:42:15.019Z,25.53
2018-03-16T03:44:44.057Z,24.60
2018-03-16T03:47:12.326Z,26.80
2018-03-16T03:49:42.102Z,24.37
2018-03-16T03:52:10.421Z,27.20
2018-03-16T03:54:38.682Z,25.23
2018-03-16T03:57:07.719Z,26.07
2018-03-16T03:59:36.394Z,25.80
2018-03-16T04:02:05.058Z,25.63
2018-03-16T04:04:33.342Z,27.47
2018-03-16T04:07:01.610Z,26.57
2018-03-16T04:09:31.046Z,28.50
2018-03-16T04:12:00.078Z,28.77
2018-03-16T04:14:28.347Z,29.10
2018-03-16T04:16:58.142Z,27.80
2018-03-16T04:19:26.403Z,29.37
2018-03-16T04:21:55.459Z,28.43
2018-03-16T04:24:23.742Z,28.40
2018-03-16T04:26:52.002Z,29.60
2018-03-16T04:29:21.803Z,28.90
2018-03-16T04:31:50.085Z,28.83
2018-03-16T04:34:18.362Z,29.40
2018-03-16T04:36:46.654Z,30.03
2018-03-16T04:39:14.918Z,31.07
2018-03-16T04:41:43.173Z,28.53
2018-03-16T04:44:12.614Z,30.67
2018-03-16T04:46:41.638Z,28.97
2018-03-16T04:49:09.906Z,32.80
2018-03-16T04:51:39.723Z,32.53
2018-03-16T04:54:07.990Z,34.07
2018-03-16T04:56:36.251Z,32.17
2018-03-16T04:59:04.550Z,31.80
2018-03-16T05:01:33.215Z,32.67
2018-03-16T05:04:01.479Z,35.03
2018-03-16T05:06:30.535Z,32.30
2018-03-16T05:08:58.799Z,31.53
2018-03-16T05:11:27.835Z,33.07
2018-03-16T05:13:56.895Z,30.60
2018-03-16T05:16:25.931Z,31.37
2018-03-16T05:18:54.199Z,30.60
2018-03-16T05:21:23.271Z,30.80
2018-03-16T05:23:52.306Z,32.60
2018-03-16T05:26:20.576Z,30.60
2018-03-16T05:28:48.890Z,32.00
2018-03-16T05:31:17.155Z,31.40
2018-03-16T05:33:46.672Z,31.53
2018-03-16T05:36:14.967Z,30.40
2018-03-16T05:38:43.229Z,32.33
2018-03-16T05:41:11.492Z,32.67
2018-03-16T05:43:39.792Z,33.40
2018-03-16T05:46:08.050Z,30.33
2018-03-16T05:48:37.674Z,33.20
2018-03-16T05:51:05.871Z,31.23
2018-03-16T05:53:34.902Z,30.30
2018-03-16T05:56:03.562Z,32.00
2018-03-16T05:58:31.870Z,31.70
2018-03-16T06:01:00.135Z,33.53
2018-03-16T06:03:28.407Z,31.37
2018-03-16T06:05:58.250Z,30.43
2018-03-16T06:08:26.507Z,31.77
2018-03-16T06:10:54.776Z,33.07
2018-03-16T06:13:23.078Z,30.30
2018-03-16T06:15:51.346Z,32.00
2018-03-16T06:18:19.619Z,31.57
2018-03-16T06:20:47.928Z,31.27
2018-03-16T06:23:16.202Z,33.00
2018-03-16T06:25:45.243Z,32.33
2018-03-16T06:28:13.559Z,33.63
2018-03-16T06:30:41.831Z,33.33
2018-03-16T06:33:10.099Z,34.13
2018-03-16T06:35:38.563Z,34.07
2018-03-16T06:38:06.829Z,32.37
2018-03-16T06:40:35.863Z,36.30
2018-03-16T06:43:04.187Z,35.87
2018-03-16T06:45:32.457Z,34.57
2018-03-16T06:48:00.726Z,36.17
2018-03-16T06:50:30.539Z,36.50
2018-03-16T06:52:58.825Z,35.27
2018-03-16T06:55:27.486Z,37.07
2018-03-16T06:57:56.934Z,37.80
2018-03-16T07:00:25.198Z,37.47
2018-03-16T07:02:54.590Z,35.20
2018-03-16T07:05:22.890Z,36.70
2018-03-16T07:07:51.167Z,35.90
2018-03-16T07:10:19.440Z,37.93
2018-03-16T07:12:48.698Z,39.23
2018-03-16T07:15:29.974Z,39.67
2018-03-16T07:17:59.652Z,39.00
2018-03-16T07:20:28.550Z,38.13
2018-03-16T07:22:56.827Z,38.60
2018-03-16T07:25:25.895Z,38.70
2018-03-16T07:27:54.167Z,37.20
2018-03-16T07:30:22.434Z,40.87
2018-03-16T07:32:52.264Z,38.03
2018-03-16T07:35:20.510Z,41.80
2018-03-16T07:37:48.778Z,38.13
2018-03-16T07:40:17.490Z,40.77
2018-03-16T07:42:46.535Z,36.40
2018-03-16T07:45:14.796Z,36.20
2018-03-16T07:47:43.099Z,37.47
2018-03-16T07:50:11.372Z,36.67
2018-03-16T07:52:42.574Z,39.10
2018-03-16T07:55:11.291Z,37.87
2018-03-16T07:57:39.555Z,38.13
2018-03-16T08:00:07.826Z,37.30
2018-03-16T08:02:36.135Z,36.53
2018-03-16T08:05:04.406Z,37.83
2018-03-16T08:07:33.814Z,39.07
2018-03-16T08:10:02.115Z,40.10
2018-03-16T08:12:30.786Z,38.07
2018-03-16T08:14:59.468Z,39.30
2018-03-16T08:17:28.173Z,38.50
2018-03-16T08:19:57.205Z,39.70
2018-03-16T08:22:26.236Z,37.87
2018-03-16T08:24:54.535Z,40.80
2018-03-16T08:27:22.809Z,40.30
2018-03-16T08:29:51.075Z,37.47
2018-03-16T08:32:19.526Z,39.93
2018-03-16T08:34:48.934Z,39.67
2018-03-16T08:37:17.207Z,36.73
2018-03-16T08:39:46.862Z,39.30
2018-03-16T08:42:15.139Z,35.10
2018-03-16T08:44:43.403Z,38.20
2018-03-16T08:47:12.479Z,37.03
2018-03-16T08:49:41.509Z,36.40
2018-03-16T08:52:09.775Z,35.33
2018-03-16T08:54:38.081Z,37.20
2018-03-16T08:57:06.351Z,35.57
2018-03-16T08:59:36.129Z,39.30
2018-03-16T09:02:04.443Z,38.60
2018-03-16T09:04:33.110Z,37.17
2018-03-16T09:07:01.378Z,37.60
2018-03-16T09:09:31.389Z,37.67
2018-03-16T09:11:59.647Z,37.70
2018-03-16T09:14:28.684Z,35.93
2018-03-16T09:16:56.979Z,37.30
2018-03-16T09:19:25.242Z,35.13
2018-03-16T09:21:53.502Z,35.50
2018-03-16T09:24:21.807Z,34.70
2018-03-16T09:26:51.574Z,34.13
2018-03-16T09:29:19.835Z,36.00
2018-03-16T09:31:48.134Z,32.57
2018-03-16T09:34:16.403Z,35.53
2018-03-16T09:36:45.433Z,33.00
2018-03-16T09:39:14.907Z,33.13
2018-03-16T09:41:43.931Z,33.37
2018-03-16T09:44:12.193Z,34.87
2018-03-16T09:46:40.501Z,34.13
2018-03-16T09:49:08.758Z,31.50
2018-03-16T09:51:37.017Z,32.00
2018-03-16T09:54:05.318Z,31.93
2018-03-16T09:56:33.591Z,31.07
2018-03-16T09:59:02.618Z,30.97
2018-03-16T10:01:31.683Z,30.57
2018-03-16T10:04:00.706Z,30.90
2018-03-16T10:06:28.971Z,28.70
2018-03-16T10:08:57.282Z,29.27
2018-03-16T10:11:25.554Z,28.37
2018-03-16T10:13:54.582Z,28.90
2018-03-16T10:16:23.278Z,28.20
2018-03-16T10:18:52.301Z,29.77
2018-03-16T10:21:21.707Z,30.10
2018-03-16T10:23:50.013Z,28.77
2018-03-16T10:26:18.274Z,29.70
2018-03-16T10:28:46.534Z,28.30
2018-03-16T10:31:15.970Z,28.30
2018-03-16T10:33:45.003Z,29.00
2018-03-16T10:36:13.273Z,27.27
2018-03-16T10:38:41.570Z,27.57
2018-03-16T10:41:10.604Z,28.63
2018-03-16T10:43:39.626Z,28.93
2018-03-16T10:46:08.690Z,27.77
2018-03-16T10:48:36.954Z,28.27
2018-03-16T10:51:05.986Z,28.07
2018-03-16T10:53:35.237Z,29.97
2018-03-16T10:56:03.494Z,30.20
2018-03-16T10:58:32.526Z,27.47
2018-03-16T11:01:01.573Z,28.83
2018-03-16T11:03:35.602Z,27.27
2018-03-16T11:06:05.251Z,26.60
2018-03-16T11:08:33.791Z,24.77
2018-03-16T11:11:02.364Z,25.23
2018-03-16T11:13:30.631Z,26.17
2018-03-16T11:16:00.254Z,25.53
2018-03-16T11:18:28.431Z,24.83
2018-03-16T11:20:56.690Z,24.20
2018-03-16T11:23:24.955Z,24.40
2018-03-16T11:25:54.770Z,22.07
2018-03-16T11:28:23.034Z,22.27
2018-03-16T11:30:51.298Z,24.27
2018-03-16T11:33:21.095Z,22.43
2018-03-16T11:35:49.353Z,23.70
2018-03-16T11:38:17.614Z,23.47
2018-03-16T11:40:45.910Z,21.90
2018-03-16T11:43:14.226Z,23.37
2018-03-16T11:45:42.460Z,23.20
2018-03-16T11:48:10.751Z,24.97
2018-03-16T11:50:39.779Z,22.63
2018-03-16T11:53:08.062Z,24.40
2018-03-16T11:55:37.114Z,23.80
2018-03-16T11:58:06.142Z,23.63
2018-03-16T12:00:34.436Z,22.27
2018-03-16T12:03:02.723Z,22.00
2018-03-16T12:05:30.987Z,20.90
2018-03-16T12:07:59.298Z,22.23
2018-03-16T12:10:28.692Z,22.97
2018-03-16T12:12:56.959Z,23.13
2018-03-16T12:15:25.586Z,23.90
2018-03-16T12:17:53.851Z,23.17
2018-03-16T12:20:22.879Z,23.60
2018-03-16T12:22:51.566Z,21.47
2018-03-16T12:25:19.826Z,20.07
2018-03-16T12:27:48.090Z,19.87
2018-03-16T12:30:17.746Z,20.87
2018-03-16T12:32:46.650Z,20.57
2018-03-16T12:35:15.678Z,21.67
2018-03-16T12:37:44.088Z,17.53
2018-03-16T12:40:12.347Z,20.47
2018-03-16T12:42:40.620Z,19.90
2018-03-16T12:45:08.920Z,21.03
2018-03-16T12:47:38.314Z,20.70
2018-03-16T12:50:06.582Z,20.77
2018-03-16T12:52:34.902Z,21.70
2018-03-16T12:55:04.674Z,20.73
2018-03-16T12:57:34.325Z,20.83
2018-03-16T13:00:03.642Z,23.67
2018-03-16T13:02:31.906Z,22.33
2018-03-16T13:05:00.939Z,21.93
2018-03-16T13:07:29.242Z,24.43
2018-03-16T13:09:57.506Z,26.10
2018-03-16T13:12:25.780Z,25.17
2018-03-16T13:14:54.082Z,26.00
2018-03-16T13:17:22.350Z,25.20
2018-03-16T13:19:50.633Z,24.67
2018-03-16T13:22:19.700Z,31.43
2018-03-16T13:24:47.963Z,29.53
2018-03-16T13:27:16.239Z,30.37
2018-03-16T13:29:45.306Z,27.10
2018-03-16T13:32:14.398Z,29.30
2018-03-16T13:34:42.601Z,26.70
2018-03-16T13:37:11.659Z,26.17
2018-03-16T13:39:40.695Z,24.00
2018-03-16T13:42:08.962Z,24.90
2018-03-16T13:44:37.661Z,24.03
2018-03-16T13:47:06.695Z,22.43
2018-03-16T13:49:34.959Z,24.13
2018-03-16T13:52:03.263Z,24.57
2018-03-16T13:54:31.530Z,23.43
2018-03-16T13:56:59.796Z,22.70
2018-03-16T13:59:28.091Z,25.07
2018-03-16T14:01:56.379Z,25.70
2018-03-16T14:04:25.783Z,24.80
2018-03-16T14:06:54.088Z,23.80
2018-03-16T14:09:22.343Z,23.10
2018-03-16T14:11:50.608Z,24.00
2018-03-16T14:14:20.043Z,25.40
2018-03-16T14:16:49.067Z,27.10
2018-03-16T14:19:18.462Z,27.30
2018-03-16T14:21:47.838Z,27.00
2018-03-16T14:24:16.491Z,23.10
2018-03-16T14:26:44.755Z,26.53
2018-03-16T14:29:13.062Z,21.60
2018-03-16T14:31:41.327Z,22.47
2018-03-16T14:34:11.126Z,24.03
2018-03-16T14:36:39.410Z,24.07
2018-03-16T14:39:09.594Z,23.63
2018-03-16T14:41:37.854Z,23.90
2018-03-16T14:44:07.204Z,24.30
2018-03-16T14:46:35.458Z,26.10
2018-03-16T14:49:04.498Z,25.40
2018-03-16T14:51:32.787Z,29.80
2018-03-16T14:54:01.810Z,30.80
2018-03-16T14:56:30.875Z,30.23
2018-03-16T14:59:02.771Z,31.83
2018-03-16T15:01:31.034Z,31.40
2018-03-16T15:03:59.294Z,31.00
2018-03-16T15:06:27.594Z,32.27
2018-03-16T15:08:57.362Z,30.17
2018-03-16T15:11:25.636Z,32.17
2018-03-16T15:13:53.944Z,30.63
2018-03-16T15:16:23.691Z,28.10
2018-03-16T15:18:53.432Z,28.57
2018-03-16T15:21:22.450Z,28.60
2018-03-16T15:23:51.109Z,27.97
2018-03-16T15:26:20.187Z,25.80
2018-03-16T15:28:49.764Z,25.23
2018-03-16T15:31:17.864Z,25.00
2018-03-16T15:33:46.126Z,24.83
2018-03-16T15:36:14.367Z,22.40
2018-03-16T15:38:42.629Z,20.93
2018-03-16T15:41:10.860Z,21.90
2018-03-16T15:43:39.092Z,21.33
2018-03-16T15:46:07.363Z,21.93
2018-03-16T15:48:35.597Z,21.90
2018-03-16T15:51:04.593Z,22.07
2018-03-16T15:53:33.040Z,22.50
2018-03-16T15:56:02.778Z,21.97
2018-03-16T15:58:31.021Z,21.40
2018-03-16T16:00:59.285Z,22.20
2018-03-16T16:03:27.518Z,21.90
2018-03-16T16:05:55.752Z,19.63
2018-03-16T16:08:24.004Z,21.33
2018-03-16T16:10:52.236Z,23.93
2018-03-16T16:13:20.492Z,23.37
2018-03-16T16:15:48.752Z,22.77
2018-03-16T16:18:16.976Z,24.50
2018-03-16T16:20:45.642Z,24.47
2018-03-16T16:23:13.900Z,22.53
2018-03-16T16:25:42.138Z,24.07
2018-03-16T16:28:10.405Z,22.83
2018-03-16T16:30:40.160Z,22.83
2018-03-16T16:33:08.389Z,24.30
2018-03-16T16:35:36.660Z,26.43
2018-03-16T16:38:04.900Z,23.80
2018-03-16T16:40:33.155Z,25.37
2018-03-16T16:43:01.419Z,26.77
2018-03-16T16:45:29.714Z,23.53
2018-03-16T16:47:57.893Z,21.57
2018-03-16T16:50:26.152Z,21.53
2018-03-16T16:52:54.394Z,21.27
2018-03-16T16:55:23.472Z,21.50
2018-03-16T16:57:53.244Z,21.63
2018-03-16T17:00:21.521Z,21.93
2018-03-16T17:02:49.732Z,22.50
2018-03-16T17:05:18.005Z,25.33
2018-03-16T17:07:46.237Z,25.10
2018-03-16T17:10:14.502Z,22.80
2018-03-16T17:12:42.737Z,25.50
2018-03-16T17:15:12.474Z,25.33
2018-03-16T17:17:42.250Z,24.80
2018-03-16T17:20:10.489Z,24.10
2018-03-16T17:22:38.728Z,26.30
2018-03-16T17:25:07.389Z,23.47
2018-03-16T17:27:35.621Z,26.30
2018-03-16T17:30:04.988Z,26.70
2018-03-16T17:32:33.265Z,25.63
2018-03-16T17:35:02.279Z,26.50
2018-03-16T17:37:31.277Z,26.37
2018-03-16T17:39:59.545Z,26.00
2018-03-16T17:42:27.782Z,26.80
2018-03-16T17:44:56.408Z,25.13
2018-03-16T17:47:25.444Z,24.90
2018-03-16T17:49:53.707Z,25.83
2018-03-16T17:52:21.912Z,22.23
2018-03-16T17:54:50.179Z,22.83
2018-03-16T17:57:18.408Z,23.83
2018-03-16T17:59:46.645Z,25.23
2018-03-16T18:02:15.695Z,24.43
2018-03-16T18:04:45.065Z,22.43
2018-03-16T18:07:13.295Z,24.30
2018-03-16T18:09:41.564Z,23.70
2018-03-16T18:12:09.789Z,22.70
2018-03-16T18:14:38.066Z,24.50
2018-03-16T18:17:07.758Z,23.57
2018-03-16T18:19:37.121Z,24.30
2018-03-16T18:22:06.121Z,23.10
2018-03-16T18:24:34.384Z,22.47
2018-03-16T18:27:02.641Z,22.43
2018-03-16T18:29:32.017Z,22.00
2018-03-16T18:32:02.321Z,24.30
2018-03-16T18:34:30.593Z,23.13
2018-03-16T18:37:00.204Z,23.73
2018-03-16T18:39:28.344Z,22.60
2018-03-16T18:41:56.618Z,22.07
2018-03-16T18:44:26.410Z,22.00
2018-03-16T18:46:54.665Z,22.80
2018-03-16T18:49:22.897Z,21.47
2018-03-16T18:51:51.173Z,22.53
2018-03-16T18:54:19.428Z,19.60
2018-03-16T18:56:47.660Z,20.80
2018-03-16T18:59:17.300Z,20.43
2018-03-16T19:01:45.415Z,22.30
2018-03-16T19:04:13.645Z,25.27
2018-03-16T19:06:41.934Z,25.23
2018-03-16T19:09:10.193Z,23.50
2018-03-16T19:11:38.442Z,19.70
2018-03-16T19:14:06.760Z,22.03
2018-03-16T19:16:35.753Z,20.80
2018-03-16T19:19:03.988Z,20.87
2018-03-16T19:21:33.770Z,22.93
2018-03-16T19:24:02.045Z,22.03
2018-03-16T19:26:30.300Z,21.70
2018-03-16T19:28:58.561Z,24.83
2018-03-16T19:31:26.853Z,24.30
2018-03-16T19:33:55.081Z,20.80
2018-03-16T19:36:24.476Z,19.70
2018-03-16T19:38:52.736Z,19.90
2018-03-16T19:41:20.980Z,20.83
2018-03-16T19:43:49.246Z,18.60
2018-03-16T19:46:17.513Z,19.57
2018-03-16T19:48:45.786Z,18.87
2018-03-16T19:51:13.977Z,21.23
2018-03-16T19:53:43.388Z,21.95
2018-03-16T19:56:11.634Z,21.07
2018-03-16T19:58:39.877Z,20.40
2018-03-16T20:01:08.913Z,20.20
2018-03-16T20:03:38.288Z,19.98
2018-03-16T20:06:06.517Z,19.83
2018-03-16T20:08:36.149Z,19.90
2018-03-16T20:11:04.257Z,20.63
2018-03-16T20:13:33.260Z,18.40
2018-03-16T20:16:01.542Z,19.80
2018-03-16T20:18:30.544Z,19.67
2018-03-16T20:20:58.793Z,17.40
2018-03-16T20:23:27.465Z,18.07
2018-03-16T20:25:55.705Z,18.05
2018-03-16T20:28:23.941Z,17.03
2018-03-16T20:30:56.061Z,18.85
2018-03-16T20:33:24.306Z,17.75
2018-03-16T20:35:53.306Z,16.12
2018-03-16T20:38:21.585Z,17.25
2018-03-16T20:40:49.833Z,17.30
2018-03-16T20:43:18.064Z,17.00
2018-03-16T20:45:48.022Z,18.23
2018-03-16T20:48:16.266Z,18.33
2018-03-16T20:50:44.500Z,17.15
2018-03-16T20:53:12.788Z,16.92
2018-03-16T20:55:41.041Z,17.60
2018-03-16T20:58:09.277Z,17.83
2018-03-16T21:00:38.325Z,17.23
2018-03-16T21:03:06.561Z,17.15
2018-03-16T21:05:34.798Z,18.27
2018-03-16T21:08:04.424Z,16.92
2018-03-16T21:10:32.933Z,15.85
2018-03-16T21:13:01.173Z,16.25
2018-03-16T21:15:29.461Z,17.02
2018-03-16T21:17:57.706Z,16.37
2018-03-16T21:20:27.316Z,17.85
2018-03-16T21:22:55.481Z,18.77
2018-03-16T21:25:23.721Z,16.73
2018-03-16T21:27:51.961Z,17.60
2018-03-16T21:30:20.249Z,16.25
2018-03-16T21:32:49.847Z,17.83
2018-03-16T21:35:17.961Z,16.73
2018-03-16T21:37:46.243Z,16.80
2018-03-16T21:40:14.472Z,17.15
2018-03-16T21:42:42.712Z,17.90
2018-03-16T21:45:10.988Z,18.62
2018-03-16T21:47:40.728Z,17.87
2018-03-16T21:50:09.732Z,17.25
2018-03-16T21:52:38.769Z,17.92
2018-03-16T21:55:08.365Z,17.90
2018-03-16T21:57:37.645Z,17.00
2018-03-16T22:00:07.306Z,16.62
2018-03-16T22:02:35.422Z,18.30
2018-03-16T22:05:03.660Z,16.15
2018-03-16T22:07:33.303Z,15.80
2018-03-16T22:10:01.426Z,17.35
2018-03-16T22:12:30.070Z,16.52
2018-03-16T22:14:58.375Z,17.35
2018-03-16T22:17:26.672Z,17.00
2018-03-16T22:19:54.957Z,16.35
2018-03-16T22:22:23.496Z,18.00
2018-03-16T22:24:52.101Z,18.55
2018-03-16T22:27:20.373Z,15.05
2018-03-16T22:29:49.013Z,16.70
2018-03-16T22:32:17.253Z,16.00
2018-03-16T22:34:45.489Z,16.40
2018-03-16T22:37:14.025Z,16.95
2018-03-16T22:39:42.662Z,15.00
2018-03-16T22:42:10.892Z,16.15
2018-03-16T22:44:40.225Z,15.90
2018-03-16T22:47:09.275Z,16.15
2018-03-16T22:49:37.465Z,16.70
2018-03-16T22:52:09.027Z,14.87
2018-03-16T22:54:37.260Z,15.70
2018-03-16T22:57:05.501Z,15.65
2018-03-16T22:59:33.777Z,15.95
2018-03-16T23:02:02.020Z,16.40
2018-03-16T23:04:31.616Z,16.15
2018-03-16T23:07:00.161Z,18.17
2018-03-16T23:09:29.167Z,16.12
2018-03-16T23:11:58.174Z,16.80
2018-03-16T23:14:26.475Z,16.60
2018-03-16T23:16:54.708Z,15.68
2018-03-16T23:19:22.940Z,15.98
2018-03-16T23:21:51.214Z,15.90
2018-03-16T23:24:19.454Z,16.50
2018-03-16T23:26:47.684Z,15.57
2018-03-16T23:29:17.097Z,16.58
2018-03-16T23:31:45.328Z,15.52
2018-03-16T23:34:14.337Z,17.98
2018-03-16T23:36:43.888Z,16.33
2018-03-16T23:39:12.523Z,18.73
2018-03-16T23:41:40.756Z,16.67
2018-03-16T23:44:10.534Z,17.50
2018-03-16T23:46:39.536Z,16.75
2018-03-16T23:49:08.528Z,17.30
2018-03-16T23:51:36.837Z,17.25
2018-03-16T23:54:05.077Z,16.77
2018-03-16T23:56:34.072Z,17.77
2018-03-16T23:59:02.340Z,17.12
